LFBL/LIG METAR and TAF weather

Enter ICAO airport designator
Station Type Date Time Source
LFBL METAR 2019/04/19 11:00 UTC NOAA

LFBL 191100Z AUTO 09011KT 060V120 CAVOK 22/06 Q1024 NOSIG


Station Type Date Time Source
LFBL Decoded METAR 2019/04/19 11:00 UTC NOAA

Limoges, France (LFBL) 45-52N 001-11E 402M
Apr 19, 2019 - 07:00 AM EDT / 2019.04.19 1100 UTC
Wind: from the E (090 degrees) at 13 MPH (11 KT) (direction variable):0
Visibility: greater than 7 mile(s):0
Temperature: 71 F (22 C)
Dew Point: 42 F (6 C)
Relative Humidity: 35%
Pressure (altimeter): 30.24 in. Hg (1024 hPa)
ob: LFBL 191100Z AUTO 09011KT 060V120 CAVOK 22/06 Q1024 NOSIG
cycle: 11

Station Type Date Time Source
LFBL TAF 2019/04/19 06:21 UTC NOAA

TAF TAF LFBL 190500Z 1906/2006 13005KT CAVOK
FM191300 09010KT CAVOK
BECMG 1920/1922 VRB03KT

Example: see airport list